Time;durP1;ratioP1;P1;durP2;ratioP2;P2;SDS_P1;SDS_P2;PMS_P1;PMS_P2;Temp;Humidity;BMP_temperature;BMP_pressure;BME280_temperature;BME280_humidity;BME280_pressure;Samples;Min_cycle;Max_cycle;Signal;HPM_P1;HPM_P2
2023/12/23 00:00:05;;;;;;;16.67;4.10;;;9.30;99.90;;;;;;5046169;28;20152;-74
2023/12/23 00:02:30;;;;;;;27.73;4.80;;;8.00;99.90;;;;;;5028749;28;20036;-75
2023/12/23 00:04:56;;;;;;;16.75;3.95;;;9.80;99.90;;;;;;5048844;28;20046;-77
2023/12/23 00:07:22;;;;;;;20.00;4.20;;;8.30;33.80;;;;;;5040869;28;20048;-75
2023/12/23 00:09:47;;;;;;;22.10;4.72;;;9.70;99.90;;;;;;5044853;28;20045;-74
2023/12/23 00:12:13;;;;;;;22.27;4.35;;;9.40;99.90;;;;;;5043439;28;20045;-77
2023/12/23 00:14:39;;;;;;;18.35;4.07;;;7.80;99.90;;;;;;5044003;28;20040;-79
2023/12/23 00:17:04;;;;;;;20.10;3.85;;;8.50;99.90;;;;;;5043161;28;20043;-77
2023/12/23 00:19:30;;;;;;;18.80;4.15;;;9.60;99.90;;;;;;5042251;28;20041;-73
2023/12/23 00:21:56;;;;;;;13.20;3.40;;;9.60;99.90;;;;;;5041930;28;20041;-78
2023/12/23 00:24:24;;;;;;;16.02;2.60;;;9.50;98.00;;;;;;5012681;28;20085;-76
2023/12/23 00:26:50;;;;;;;12.30;2.97;;;7.70;1.00;;;;;;5039922;28;20052;-75
2023/12/23 00:29:16;;;;;;;14.20;3.25;;;7.90;1.00;;;;;;5043830;28;20041;-73
2023/12/23 00:31:41;;;;;;;11.05;3.45;;;9.30;99.90;;;;;;5044514;28;20045;-75
2023/12/23 00:34:07;;;;;;;15.80;2.90;;;8.80;99.90;;;;;;5031073;28;20040;-75
2023/12/23 00:36:33;;;;;;;15.68;2.83;;;8.60;99.90;;;;;;5024290;28;20037;-76
2023/12/23 00:38:58;;;;;;;12.43;2.70;;;8.00;99.90;;;;;;5041129;28;20040;-76
2023/12/23 00:41:24;;;;;;;14.52;3.20;;;8.80;99.90;;;;;;5043538;28;20037;-76
2023/12/23 00:43:50;;;;;;;15.20;2.83;;;9.20;99.90;;;;;;5029741;28;20040;-79
2023/12/23 00:46:16;;;;;;;17.58;3.17;;;7.90;5.50;;;;;;5044226;28;20140;-74
2023/12/23 00:48:42;;;;;;;14.18;2.90;;;9.60;1.00;;;;;;5039657;28;20056;-74
2023/12/23 00:51:08;;;;;;;16.80;3.45;;;9.50;1.00;;;;;;5024481;28;20033;-74
2023/12/23 00:53:34;;;;;;;17.73;3.85;;;8.60;99.90;;;;;;5045460;28;20039;-74
2023/12/23 00:56:00;;;;;;;16.33;3.75;;;9.50;16.40;;;;;;5042989;28;20033;-73
2023/12/23 00:58:26;;;;;;;13.75;3.17;;;7.90;1.00;;;;;;5044131;28;20044;-76
2023/12/23 01:00:52;;;;;;;18.95;5.20;;;7.80;99.90;;;;;;5011403;28;20052;-77
2023/12/23 01:03:17;;;;;;;17.73;4.65;;;8.70;99.90;;;;;;5027549;28;20480;-74
2023/12/23 01:05:43;;;;;;;16.55;4.68;;;7.90;99.90;;;;;;5024262;28;20051;-75
2023/12/23 01:08:09;;;;;;;23.75;4.78;;;9.80;99.90;;;;;;5040442;28;20503;-73
2023/12/23 01:10:34;;;;;;;22.48;5.28;;;8.00;28.20;;;;;;5043617;28;20048;-76
2023/12/23 01:13:00;;;;;;;17.45;4.03;;;8.00;99.90;;;;;;5026474;28;20112;-78
2023/12/23 01:15:26;;;;;;;21.98;5.15;;;8.10;1.00;;;;;;5026742;28;20041;-75
2023/12/23 01:17:51;;;;;;;18.55;5.18;;;8.80;99.90;;;;;;5025169;28;20072;-77
2023/12/23 01:20:17;;;;;;;15.65;3.22;;;9.80;99.90;;;;;;5025561;28;20451;-74
2023/12/23 01:22:43;;;;;;;12.77;4.25;;;8.10;99.90;;;;;;5043422;28;20389;-74
2023/12/23 01:25:09;;;;;;;18.00;3.95;;;8.40;58.90;;;;;;5042331;28;20409;-74
2023/12/23 01:27:34;;;;;;;20.90;4.60;;;9.70;99.90;;;;;;5028480;28;20123;-81
2023/12/23 01:30:00;;;;;;;18.38;4.38;;;9.30;99.90;;;;;;5021463;28;20128;-79
2023/12/23 01:32:26;;;;;;;17.50;4.57;;;8.00;1.00;;;;;;5026236;28;20040;-76
2023/12/23 01:34:51;;;;;;;18.85;3.97;;;9.90;99.90;;;;;;5043120;28;20507;-79
2023/12/23 01:37:17;;;;;;;17.95;4.47;;;8.70;99.90;;;;;;5044475;28;20082;-78
2023/12/23 01:39:42;;;;;;;15.73;3.63;;;8.50;1.00;;;;;;5021383;28;20462;-79
2023/12/23 01:42:08;;;;;;;22.63;5.00;;;8.20;99.90;;;;;;5027395;28;20043;-79
2023/12/23 01:44:34;;;;;;;18.58;3.10;;;10.10;11.20;;;;;;5041368;28;20047;-75
2023/12/23 01:47:02;;;;;;;14.48;4.28;;;9.80;99.90;;;;;;5025970;28;20174;-75
2023/12/23 01:49:29;;;;;;;18.05;4.45;;;8.20;99.90;;;;;;5035996;28;20074;-78
2023/12/23 01:51:57;;;;;;;12.95;3.72;;;10.00;99.90;;;;;;5037769;28;20121;-73
2023/12/23 01:54:23;;;;;;;20.10;4.05;;;9.10;99.90;;;;;;5043398;28;20428;-74
2023/12/23 01:56:50;;;;;;;17.02;4.00;;;10.20;1.00;;;;;;5025044;28;20044;-77
2023/12/23 01:59:19;;;;;;;20.95;4.18;;;8.30;79.60;;;;;;5039576;28;20041;-76
2023/12/23 02:01:45;;;;;;;11.20;3.00;;;10.00;99.90;;;;;;5025105;28;20385;-77
2023/12/23 02:04:11;;;;;;;17.90;3.65;;;10.20;1.00;;;;;;5007364;28;20047;-75
2023/12/23 02:06:37;;;;;;;13.20;3.28;;;8.40;1.00;;;;;;5023781;28;20045;-76
2023/12/23 02:09:03;;;;;;;15.43;3.17;;;8.30;1.00;;;;;;5026238;28;20485;-77
2023/12/23 02:11:42;;;;;;;13.38;2.95;;;10.30;99.90;;;;;;5038300;28;20385;-77
2023/12/23 02:14:36;;;;;;;14.55;3.65;;;9.30;17.00;;;;;;5038776;28;20037;-75
2023/12/23 02:17:02;;;;;;;18.10;3.35;;;8.30;99.90;;;;;;5042758;28;20084;-75
2023/12/23 02:19:28;;;;;;;11.70;2.90;;;9.50;99.90;;;;;;5025854;28;20047;-75
2023/12/23 02:21:54;;;;;;;11.45;3.30;;;10.20;1.00;;;;;;5004732;28;20147;-78
2023/12/23 02:24:19;;;;;;;10.93;3.05;;;10.20;99.90;;;;;;5026039;28;20033;-77
2023/12/23 02:26:50;;;;;;;12.70;2.80;;;9.60;99.90;;;;;;5025280;28;20041;-74
2023/12/23 02:29:18;;;;;;;9.77;2.55;;;10.10;99.90;;;;;;5043529;28;20312;-74
2023/12/23 02:31:44;;;;;;;8.57;2.58;;;8.40;99.90;;;;;;5043333;28;20045;-74
2023/12/23 02:34:11;;;;;;;6.60;2.03;;;9.20;1.00;;;;;;5041391;28;20029;-73
2023/12/23 02:36:38;;;;;;;15.98;2.92;;;10.20;1.00;;;;;;5043349;28;20075;-73
2023/12/23 02:39:04;;;;;;;8.73;2.15;;;8.50;99.90;;;;;;5025823;28;20119;-76
2023/12/23 02:41:30;;;;;;;9.73;2.53;;;10.30;90.40;;;;;;5039168;28;20136;-74
2023/12/23 02:43:55;;;;;;;13.35;3.15;;;8.40;99.90;;;;;;5041574;28;20629;-76
2023/12/23 02:46:21;;;;;;;13.52;3.00;;;9.30;60.00;;;;;;5025963;28;20039;-74
2023/12/23 02:48:47;;;;;;;10.88;2.58;;;8.40;1.00;;;;;;5025459;28;20385;-72
2023/12/23 02:51:13;;;;;;;14.35;3.08;;;10.20;1.00;;;;;;5038441;28;20040;-76
2023/12/23 02:53:39;;;;;;;9.68;2.83;;;10.20;99.90;;;;;;5027050;28;20037;-74
2023/12/23 02:56:05;;;;;;;13.02;3.38;;;10.20;1.00;;;;;;5024788;28;20094;-75
2023/12/23 02:58:30;;;;;;;14.55;3.22;;;8.50;99.90;;;;;;5043026;28;20365;-75
2023/12/23 03:00:56;;;;;;;17.25;3.47;;;9.00;99.90;;;;;;5045043;28;20098;-74
2023/12/23 03:03:22;;;;;;;8.93;2.72;;;8.80;99.90;;;;;;4991402;28;20040;-75
2023/12/23 03:05:47;;;;;;;13.30;3.80;;;9.70;1.00;;;;;;5027886;28;20043;-76
2023/12/23 03:08:13;;;;;;;13.98;3.30;;;8.50;99.90;;;;;;5046723;28;20106;-77
2023/12/23 03:10:39;;;;;;;12.82;2.35;;;8.50;99.90;;;;;;5012802;28;20079;-74
2023/12/23 03:13:05;;;;;;;10.05;2.85;;;10.20;99.90;;;;;;5041763;28;20044;-72
2023/12/23 03:15:31;;;;;;;14.93;3.30;;;10.30;99.90;;;;;;5046811;28;20033;-76
2023/12/23 03:17:57;;;;;;;9.35;2.47;;;9.80;99.90;;;;;;5044517;28;20029;-76
2023/12/23 03:20:23;;;;;;;8.13;2.50;;;8.30;99.90;;;;;;5026198;28;20049;-77
2023/12/23 03:22:49;;;;;;;13.43;2.90;;;9.60;99.90;;;;;;5039836;28;20207;-77
2023/12/23 03:25:14;;;;;;;9.15;2.45;;;9.30;99.90;;;;;;5029026;28;20167;-75
2023/12/23 03:27:40;;;;;;;11.25;2.58;;;9.00;99.90;;;;;;5046079;28;20064;-73
2023/12/23 03:30:06;;;;;;;12.07;2.72;;;10.20;99.90;;;;;;5013459;28;20044;-72
2023/12/23 03:32:32;;;;;;;12.25;2.55;;;10.00;99.90;;;;;;5045323;28;20064;-75
2023/12/23 03:34:57;;;;;;;17.33;3.05;;;8.30;99.90;;;;;;5008272;28;20033;-74
2023/12/23 03:37:23;;;;;;;12.55;2.25;;;10.00;99.90;;;;;;5046968;28;20397;-76
2023/12/23 03:39:49;;;;;;;13.77;2.63;;;10.20;99.90;;;;;;5027248;28;20044;-73
2023/12/23 03:42:14;;;;;;;11.07;2.25;;;10.00;99.90;;;;;;5011357;28;20040;-75
2023/12/23 03:44:40;;;;;;;15.45;3.15;;;9.30;99.90;;;;;;5028526;28;20044;-76
2023/12/23 03:47:06;;;;;;;14.90;2.65;;;10.30;99.90;;;;;;5043939;28;20147;-77
2023/12/23 03:49:31;;;;;;;16.60;3.05;;;10.30;99.90;;;;;;5027401;28;20040;-74
2023/12/23 03:51:57;;;;;;;19.05;3.40;;;8.70;99.90;;;;;;5027765;28;20767;-73
2023/12/23 03:54:23;;;;;;;11.85;2.42;;;10.20;99.90;;;;;;5023715;28;20052;-74
2023/12/23 03:56:49;;;;;;;14.55;2.40;;;10.20;99.90;;;;;;5028227;28;20046;-74
2023/12/23 03:59:16;;;;;;;10.55;2.38;;;8.60;99.90;;;;;;5048477;28;20098;-74
2023/12/23 04:01:43;;;;;;;14.07;2.15;;;10.20;99.90;;;;;;5045187;28;20036;-74
2023/12/23 04:04:08;;;;;;;10.18;2.30;;;8.40;99.90;;;;;;5044037;28;20134;-72
2023/12/23 04:06:34;;;;;;;13.15;2.50;;;9.10;99.90;;;;;;5028430;28;20040;-78
2023/12/23 04:09:00;;;;;;;8.32;2.13;;;9.00;99.90;;;;;;5042526;28;20400;-76
2023/12/23 04:11:25;;;;;;;13.32;2.22;;;8.60;99.90;;;;;;5025332;28;20095;-79
2023/12/23 04:13:51;;;;;;;17.23;2.63;;;8.40;99.90;;;;;;5024558;28;20052;-75
2023/12/23 04:16:17;;;;;;;11.68;2.83;;;8.70;99.90;;;;;;5027921;28;20033;-74
2023/12/23 04:18:42;;;;;;;14.98;2.42;;;10.20;99.90;;;;;;5010755;28;20035;-74
2023/12/23 04:21:09;;;;;;;12.68;2.72;;;9.80;99.90;;;;;;5043664;28;20041;-79
2023/12/23 04:23:35;;;;;;;12.23;2.42;;;10.30;99.90;;;;;;5025434;28;20095;-79
2023/12/23 04:26:01;;;;;;;13.13;2.33;;;7.90;99.90;;;;;;5026351;28;20124;-79
2023/12/23 04:28:27;;;;;;;14.38;2.00;;;8.60;99.90;;;;;;5025908;28;20124;-78
2023/12/23 04:30:54;;;;;;;10.82;2.10;;;9.40;99.90;;;;;;5043742;28;20065;-78
2023/12/23 04:33:21;;;;;;;8.10;2.10;;;8.10;99.90;;;;;;5042458;28;20428;-74
2023/12/23 04:35:47;;;;;;;7.05;1.88;;;9.70;99.90;;;;;;5042763;28;20492;-75
2023/12/23 04:38:16;;;;;;;10.48;2.10;;;10.40;99.90;;;;;;5029598;28;20388;-75
2023/12/23 04:40:41;;;;;;;8.35;2.25;;;8.00;99.90;;;;;;5024755;28;20181;-76
2023/12/23 04:43:07;;;;;;;15.30;2.60;;;7.90;99.90;;;;;;5039672;28;20036;-78
2023/12/23 04:45:33;;;;;;;6.32;1.42;;;9.70;99.90;;;;;;5006881;28;20044;-79
2023/12/23 04:47:59;;;;;;;5.50;1.52;;;10.30;99.90;;;;;;5025788;28;20083;-79
2023/12/23 04:50:24;;;;;;;7.65;1.75;;;10.20;99.90;;;;;;5028857;28;20074;-79
2023/12/23 04:52:51;;;;;;;6.03;1.42;;;9.00;99.90;;;;;;5045641;28;20504;-76
2023/12/23 04:55:17;;;;;;;5.95;1.48;;;8.10;99.90;;;;;;5038042;28;20122;-78
2023/12/23 04:57:43;;;;;;;7.47;1.50;;;8.00;99.90;;;;;;5028823;28;20457;-76
2023/12/23 05:00:09;;;;;;;7.72;1.85;;;9.70;99.90;;;;;;5042424;28;20404;-77
2023/12/23 05:02:35;;;;;;;5.38;1.33;;;10.00;99.90;;;;;;5008829;28;20052;-76
2023/12/23 05:05:01;;;;;;;6.47;1.50;;;9.60;99.90;;;;;;5040017;28;20040;-78
2023/12/23 05:07:27;;;;;;;5.00;1.08;;;8.00;99.90;;;;;;5010912;28;20382;-76
2023/12/23 05:09:53;;;;;;;3.72;0.95;;;8.60;99.90;;;;;;5042171;28;20048;-76
2023/12/23 05:12:18;;;;;;;4.25;1.20;;;8.70;99.90;;;;;;5045788;28;20507;-77
2023/12/23 05:14:44;;;;;;;4.55;1.60;;;7.90;99.90;;;;;;5024346;28;20093;-79
2023/12/23 05:17:10;;;;;;;6.25;1.52;;;8.00;99.90;;;;;;5025516;28;20091;-79
2023/12/23 05:19:40;;;;;;;3.67;1.25;;;10.20;99.90;;;;;;5044472;28;20079;-77
2023/12/23 05:22:06;;;;;;;4.18;1.38;;;9.10;99.90;;;;;;5043462;28;20097;-79
2023/12/23 05:24:31;;;;;;;5.88;1.40;;;9.70;99.90;;;;;;5039820;28;20041;-75
2023/12/23 05:26:57;;;;;;;5.07;1.15;;;7.90;99.90;;;;;;5040978;28;20033;-76
2023/12/23 05:29:22;;;;;;;5.90;1.10;;;7.50;99.90;;;;;;4992464;28;20044;-75
2023/12/23 05:31:48;;;;;;;4.38;1.02;;;7.50;99.90;;;;;;5026976;28;20095;-75
2023/12/23 05:34:14;;;;;;;4.65;1.00;;;8.10;99.90;;;;;;5025384;28;20032;-79
2023/12/23 05:36:39;;;;;;;5.03;1.13;;;8.20;99.90;;;;;;5018822;28;20397;-74
2023/12/23 05:39:06;;;;;;;4.40;0.90;;;9.70;99.90;;;;;;5003737;28;20097;-76
2023/12/23 05:41:32;;;;;;;3.65;0.93;;;8.80;99.90;;;;;;5011266;28;20074;-78
2023/12/23 05:43:58;;;;;;;7.47;1.27;;;8.30;99.90;;;;;;5040421;28;20098;-78
2023/12/23 05:46:24;;;;;;;6.28;1.17;;;9.90;99.90;;;;;;5042655;28;20066;-75
2023/12/23 05:48:49;;;;;;;2.70;0.93;;;9.90;99.90;;;;;;5041756;28;20537;-76
2023/12/23 05:51:15;;;;;;;5.13;1.00;;;9.30;99.90;;;;;;5026345;28;20382;-78
2023/12/23 05:53:41;;;;;;;3.63;0.82;;;7.50;99.90;;;;;;5032085;28;20378;-79
2023/12/23 05:56:07;;;;;;;3.92;1.35;;;9.40;99.90;;;;;;5023128;28;20030;-77
2023/12/23 05:58:33;;;;;;;4.35;0.98;;;9.50;99.90;;;;;;5008800;28;20041;-75
2023/12/23 06:00:59;;;;;;;2.50;0.85;;;10.20;99.90;;;;;;5039184;28;20045;-76
2023/12/23 06:03:25;;;;;;;5.00;1.08;;;7.60;99.90;;;;;;5018393;28;20120;-79
2023/12/23 06:05:51;;;;;;;2.95;0.98;;;7.60;99.90;;;;;;5028909;28;20133;-74
2023/12/23 06:08:16;;;;;;;2.92;1.10;;;7.50;99.90;;;;;;5008381;28;20045;-75
2023/12/23 06:10:42;;;;;;;3.90;0.73;;;9.60;99.90;;;;;;5041959;28;20099;-76
2023/12/23 06:13:08;;;;;;;5.50;1.08;;;10.00;99.90;;;;;;5021685;28;20048;-73
2023/12/23 06:15:33;;;;;;;3.58;0.98;;;7.70;99.90;;;;;;5045317;28;20544;-72
2023/12/23 06:17:59;;;;;;;3.58;0.80;;;8.70;99.90;;;;;;5036703;28;20131;-74
2023/12/23 06:20:25;;;;;;;3.97;0.93;;;9.40;99.90;;;;;;5041397;28;20443;-74
2023/12/23 06:22:50;;;;;;;5.38;1.08;;;9.40;99.90;;;;;;5011829;28;20492;-73
2023/12/23 06:25:16;;;;;;;4.75;1.00;;;7.90;99.90;;;;;;5040932;28;20076;-73
2023/12/23 06:27:42;;;;;;;5.00;0.80;;;7.40;99.90;;;;;;5032843;28;20044;-72
2023/12/23 06:30:08;;;;;;;3.08;0.90;;;8.90;99.90;;;;;;5033676;28;20036;-76
2023/12/23 06:32:33;;;;;;;2.75;1.13;;;7.50;99.90;;;;;;5027415;28;20488;-75
2023/12/23 06:35:00;;;;;;;4.45;1.10;;;7.60;99.90;;;;;;5047870;28;20041;-74
2023/12/23 06:37:25;;;;;;;3.58;1.17;;;9.60;99.90;;;;;;5043078;28;20419;-75
2023/12/23 06:39:51;;;;;;;4.90;1.55;;;9.60;99.90;;;;;;5025614;28;20036;-75
2023/12/23 06:42:17;;;;;;;4.95;1.15;;;7.50;99.90;;;;;;5034924;28;20315;-77
2023/12/23 06:44:43;;;;;;;5.97;1.48;;;9.80;99.90;;;;;;5051773;28;20102;-77
2023/12/23 06:47:09;;;;;;;8.20;1.20;;;8.60;99.90;;;;;;5021985;28;20036;-74
2023/12/23 06:49:34;;;;;;;4.88;1.25;;;9.90;99.90;;;;;;5042910;28;20036;-78
2023/12/23 06:52:00;;;;;;;4.38;1.00;;;8.80;99.90;;;;;;5021668;28;20119;-79
2023/12/23 06:54:26;;;;;;;4.32;1.45;;;9.00;99.90;;;;;;5021870;28;20059;-72
2023/12/23 06:56:51;;;;;;;4.07;0.80;;;9.60;99.90;;;;;;5052235;28;20039;-76
2023/12/23 06:59:17;;;;;;;4.43;1.00;;;9.70;99.90;;;;;;5032516;28;20123;-75
2023/12/23 07:01:43;;;;;;;4.88;1.20;;;8.60;99.90;;;;;;5036566;28;20036;-79
2023/12/23 07:04:09;;;;;;;4.68;1.17;;;7.40;99.90;;;;;;5042774;28;20443;-74
2023/12/23 07:06:35;;;;;;;5.75;1.00;;;10.20;99.90;;;;;;5028670;28;20044;-77
2023/12/23 07:09:01;;;;;;;6.45;1.40;;;10.20;99.90;;;;;;5018405;28;20485;-74
2023/12/23 07:11:27;;;;;;;3.05;1.08;;;7.30;99.90;;;;;;5029742;28;20068;-77
2023/12/23 07:13:53;;;;;;;4.82;1.10;;;8.30;99.90;;;;;;5050062;28;20041;-76
2023/12/23 07:16:19;;;;;;;4.25;1.30;;;10.40;99.90;;;;;;5021005;28;20044;-74
2023/12/23 07:18:45;;;;;;;5.53;1.20;;;8.30;99.90;;;;;;5036714;28;20040;-74
2023/12/23 07:21:11;;;;;;;6.40;1.58;;;9.10;99.90;;;;;;5048910;28;20032;-76
2023/12/23 07:23:37;;;;;;;5.43;1.65;;;9.50;99.90;;;;;;5027483;28;20037;-77
2023/12/23 07:26:04;;;;;;;6.95;1.10;;;10.30;99.90;;;;;;5035971;28;20095;-73
2023/12/23 07:28:30;;;;;;;4.45;1.20;;;8.50;99.90;;;;;;5017034;28;20071;-80
2023/12/23 07:30:56;;;;;;;4.45;1.30;;;10.60;99.90;;;;;;5022071;28;20049;-74
2023/12/23 07:33:22;;;;;;;9.23;2.15;;;7.40;99.90;;;;;;5018143;28;20033;-74
2023/12/23 07:35:48;;;;;;;6.07;1.65;;;8.70;99.90;;;;;;5019306;28;20048;-72
2023/12/23 07:38:14;;;;;;;5.80;1.48;;;7.70;99.90;;;;;;5018807;28;20040;-75
2023/12/23 07:40:40;;;;;;;5.07;1.50;;;7.20;99.90;;;;;;5018608;28;20040;-76
2023/12/23 07:43:06;;;;;;;6.93;1.48;;;7.40;99.90;;;;;;5016646;28;20044;-74
2023/12/23 07:45:32;;;;;;;6.10;1.85;;;8.10;99.90;;;;;;5034257;28;20481;-80
2023/12/23 07:47:58;;;;;;;4.55;2.00;;;7.70;99.90;;;;;;5032760;28;20508;-75
2023/12/23 07:50:23;;;;;;;3.67;1.70;;;7.30;99.90;;;;;;5037807;28;20099;-76
2023/12/23 07:52:49;;;;;;;2.03;1.42;;;9.80;99.90;;;;;;5038232;28;20508;-76
2023/12/23 07:55:15;;;;;;;4.55;1.73;;;10.20;99.90;;;;;;5035685;28;20439;-76
2023/12/23 07:57:45;;;;;;;3.08;1.20;;;9.70;99.90;;;;;;5013666;28;20063;-77
2023/12/23 08:00:11;;;;;;;7.03;1.52;;;9.80;99.90;;;;;;5046212;28;20037;-78
2023/12/23 08:02:37;;;;;;;3.67;1.42;;;10.50;99.90;;;;;;5043089;28;20042;-76
2023/12/23 08:05:04;;;;;;;3.00;1.35;;;8.60;99.90;;;;;;5008169;28;20040;-80
2023/12/23 08:07:29;;;;;;;4.65;1.65;;;7.80;99.90;;;;;;5038584;28;20070;-76
2023/12/23 08:09:55;;;;;;;3.63;1.45;;;10.50;99.90;;;;;;5046033;28;20057;-76
2023/12/23 08:12:21;;;;;;;3.53;1.13;;;7.40;99.90;;;;;;5042237;28;20056;-76
2023/12/23 08:14:46;;;;;;;4.00;1.10;;;8.90;99.90;;;;;;5025278;28;20474;-77
2023/12/23 08:17:12;;;;;;;2.50;1.20;;;9.20;99.90;;;;;;5021071;28;20055;-77
2023/12/23 08:19:38;;;;;;;4.03;1.40;;;10.40;99.90;;;;;;5035679;28;20041;-75
2023/12/23 08:22:04;;;;;;;2.90;1.10;;;7.70;99.90;;;;;;5043494;28;20125;-80
2023/12/23 08:24:29;;;;;;;3.28;1.38;;;7.80;99.90;;;;;;5039991;28;20144;-78
2023/12/23 08:26:56;;;;;;;4.45;1.77;;;8.20;99.90;;;;;;5029737;28;20248;-78
2023/12/23 08:29:24;;;;;;;4.70;1.20;;;8.90;99.90;;;;;;5042229;28;20052;-75
2023/12/23 08:31:49;;;;;;;2.70;1.10;;;7.20;99.90;;;;;;5043612;28;20358;-76
2023/12/23 08:34:15;;;;;;;5.07;1.75;;;10.40;99.90;;;;;;5010522;28;20110;-73
2023/12/23 08:36:41;;;;;;;4.10;1.35;;;8.40;99.90;;;;;;5044734;28;20051;-77
2023/12/23 08:39:07;;;;;;;3.20;1.30;;;7.70;99.90;;;;;;5038728;28;20059;-79
2023/12/23 08:41:35;;;;;;;4.65;1.42;;;8.40;99.90;;;;;;5029560;28;20468;-77
2023/12/23 08:44:02;;;;;;;2.72;1.30;;;9.90;99.90;;;;;;5034968;28;20041;-73
2023/12/23 08:46:28;;;;;;;2.28;1.40;;;7.30;99.90;;;;;;5042120;28;20044;-78
2023/12/23 08:48:54;;;;;;;3.80;1.15;;;8.10;99.90;;;;;;5027440;28;20479;-78
2023/12/23 08:51:20;;;;;;;6.35;1.17;;;9.90;99.90;;;;;;5005023;28;20032;-77
2023/12/23 08:53:46;;;;;;;3.60;1.33;;;8.50;99.90;;;;;;5034601;28;20041;-80
2023/12/23 08:56:11;;;;;;;3.90;1.50;;;7.20;99.90;;;;;;5021138;28;20041;-75
2023/12/23 08:58:37;;;;;;;5.10;1.88;;;10.30;99.90;;;;;;5000326;28;20037;-76
2023/12/23 09:01:03;;;;;;;7.90;1.80;;;7.80;99.90;;;;;;5033250;28;20136;-77
2023/12/23 09:03:30;;;;;;;6.88;2.08;;;8.80;99.90;;;;;;5026438;28;20415;-81
2023/12/23 09:05:58;;;;;;;5.18;2.30;;;10.10;99.90;;;;;;5035362;28;20511;-78
2023/12/23 09:08:25;;;;;;;5.18;2.00;;;10.60;99.90;;;;;;5013886;28;20048;-80
2023/12/23 09:10:51;;;;;;;4.43;2.25;;;7.30;99.90;;;;;;5011540;28;20057;-80
2023/12/23 09:13:16;;;;;;;5.75;2.67;;;8.00;99.90;;;;;;5040654;28;20083;-80
2023/12/23 09:15:42;;;;;;;3.38;2.33;;;9.60;99.90;;;;;;5034379;28;20072;-79
2023/12/23 09:18:08;;;;;;;5.50;3.00;;;9.80;99.90;;;;;;5001041;28;20038;-81
2023/12/23 09:20:33;;;;;;;7.53;4.82;;;7.40;99.90;;;;;;5016985;28;20052;-80
2023/12/23 09:22:59;;;;;;;11.13;5.20;;;10.90;99.90;;;;;;5008746;28;20044;-81
2023/12/23 09:25:25;;;;;;;8.50;5.55;;;10.00;99.90;;;;;;5052849;28;20040;-84
2023/12/23 09:27:51;;;;;;;6.53;4.00;;;9.30;99.90;;;;;;5020728;28;20040;-82
2023/12/23 09:30:16;;;;;;;6.20;3.25;;;8.40;99.90;;;;;;5024350;28;20072;-77
2023/12/23 09:32:42;;;;;;;6.05;3.47;;;10.00;99.90;;;;;;5018749;28;20098;-79
2023/12/23 09:35:08;;;;;;;5.20;3.08;;;7.50;99.90;;;;;;5036948;28;20123;-81
2023/12/23 09:37:34;;;;;;;4.68;3.25;;;8.10;99.90;;;;;;5052523;28;20041;-81
2023/12/23 09:40:01;;;;;;;5.75;3.30;;;10.10;99.90;;;;;;5037209;28;20079;-82
2023/12/23 09:42:29;;;;;;;5.85;3.30;;;10.10;99.90;;;;;;5020330;28;20385;-81
2023/12/23 09:44:55;;;;;;;5.57;2.78;;;8.30;99.90;;;;;;5019391;28;20040;-77
2023/12/23 09:47:21;;;;;;;7.63;3.40;;;7.60;99.90;;;;;;5000515;28;20037;-78
2023/12/23 09:49:46;;;;;;;8.23;3.75;;;8.20;99.90;;;;;;5017263;28;20075;-82
2023/12/23 09:52:13;;;;;;;6.75;3.70;;;10.90;99.90;;;;;;5001736;28;20040;-86
2023/12/23 09:54:47;;;;;;;5.70;3.65;;;7.60;99.90;;;;;;5011885;28;20047;-79
2023/12/23 09:57:14;;;;;;;4.67;3.03;;;8.30;99.90;;;;;;5036851;28;20123;-83
2023/12/23 09:59:40;;;;;;;8.80;4.28;;;10.30;99.90;;;;;;5020693;28;20075;-83
2023/12/23 10:02:06;;;;;;;7.32;3.67;;;7.60;99.90;;;;;;5003013;28;20187;-79
2023/12/23 10:04:33;;;;;;;7.82;3.40;;;8.20;99.90;;;;;;4994937;28;20110;-82
2023/12/23 10:06:59;;;;;;;6.03;3.25;;;8.20;99.90;;;;;;5051340;28;20110;-83
2023/12/23 10:09:30;;;;;;;6.15;3.75;;;7.60;99.90;;;;;;4984324;28;20123;-81
2023/12/23 10:11:55;;;;;;;10.63;3.80;;;9.00;99.90;;;;;;5003340;28;20598;-81
2023/12/23 10:14:22;;;;;;;7.18;4.03;;;8.20;99.90;;;;;;5002334;28;20081;-81
2023/12/23 10:16:48;;;;;;;7.05;4.00;;;10.20;99.90;;;;;;4991426;28;20033;-86
2023/12/23 10:19:14;;;;;;;7.13;3.50;;;7.80;99.90;;;;;;5001457;28;20497;-82
2023/12/23 10:21:41;;;;;;;7.25;4.13;;;7.90;99.90;;;;;;5001200;28;20068;-84
2023/12/23 10:24:07;;;;;;;5.13;3.35;;;10.30;99.90;;;;;;4985446;28;20501;-77
2023/12/23 10:26:34;;;;;;;5.35;3.40;;;10.50;99.90;;;;;;4999875;28;20119;-81
2023/12/23 10:29:04;;;;;;;9.70;4.30;;;9.10;99.90;;;;;;5036865;28;20076;-82
2023/12/23 10:31:33;;;;;;;8.68;4.40;;;7.70;99.90;;;;;;4991005;28;20049;-80
2023/12/23 10:34:05;;;;;;;9.45;5.38;;;10.40;99.90;;;;;;5000753;28;20038;-85
2023/12/23 10:36:32;;;;;;;8.88;5.30;;;11.20;99.90;;;;;;5021812;28;20048;-80
2023/12/23 10:39:02;;;;;;;6.70;4.55;;;7.70;99.90;;;;;;5019997;28;20045;-82
2023/12/23 10:41:50;;;;;;;7.05;5.70;;;8.30;99.90;;;;;;5003380;28;20060;-79
2023/12/23 10:44:17;;;;;;;8.82;5.88;;;8.00;99.90;;;;;;5019974;28;20045;-81
2023/12/23 10:46:44;;;;;;;7.15;5.38;;;11.40;99.90;;;;;;5029532;28;20045;-79
2023/12/23 10:49:11;;;;;;;6.57;4.93;;;7.80;99.90;;;;;;5036195;28;20496;-81
2023/12/23 10:51:38;;;;;;;7.18;5.80;;;10.70;99.90;;;;;;5003832;28;20040;-81
2023/12/23 10:54:07;;;;;;;8.07;5.38;;;7.80;99.90;;;;;;5036448;28;20047;-84
2023/12/23 10:56:35;;;;;;;8.07;6.30;;;10.50;99.90;;;;;;5030781;28;20049;-80
2023/12/23 10:59:01;;;;;;;9.90;6.28;;;10.20;99.90;;;;;;5017151;28;20512;-78
2023/12/23 11:01:31;;;;;;;10.07;6.35;;;11.10;99.90;;;;;;4980390;28;20038;-79
2023/12/23 11:04:00;;;;;;;8.27;5.32;;;8.40;99.90;;;;;;5013314;28;20042;-82
2023/12/23 11:06:31;;;;;;;12.07;7.35;;;11.00;99.90;;;;;;4987233;28;20042;-79
2023/12/23 11:08:59;;;;;;;13.68;7.13;;;9.40;99.90;;;;;;5019086;28;20064;-81
2023/12/23 11:11:26;;;;;;;11.70;7.72;;;10.50;99.90;;;;;;5047949;28;20051;-79
2023/12/23 11:13:52;;;;;;;6.20;4.70;;;9.20;99.90;;;;;;5039044;28;20048;-79
2023/12/23 11:16:19;;;;;;;5.25;4.30;;;11.00;99.90;;;;;;5021196;28;20041;-80
2023/12/23 11:18:46;;;;;;;6.65;4.45;;;10.90;99.90;;;;;;5019743;28;20029;-80
2023/12/23 11:21:18;;;;;;;6.70;4.38;;;8.20;99.90;;;;;;5003084;28;20044;-79
2023/12/23 11:23:45;;;;;;;6.38;4.97;;;8.00;99.90;;;;;;5035012;28;20052;-75
2023/12/23 11:26:39;;;;;;;7.88;4.70;;;11.70;99.90;;;;;;5038835;28;20820;-76
2023/12/23 11:29:11;;;;;;;7.78;5.28;;;11.70;99.90;;;;;;5053693;28;20048;-76
2023/12/23 11:31:37;;;;;;;8.40;5.28;;;11.30;99.90;;;;;;5001584;28;20068;-79
2023/12/23 11:34:14;;;;;;;8.88;6.10;;;8.40;99.90;;;;;;5006126;28;20033;-76
2023/12/23 11:36:42;;;;;;;10.02;6.95;;;8.10;99.90;;;;;;5035062;28;20041;-79
2023/12/23 11:39:11;;;;;;;11.00;6.95;;;7.90;99.90;;;;;;5035091;28;20521;-76
2023/12/23 11:41:40;;;;;;;11.15;7.65;;;9.50;99.90;;;;;;5018357;28;20041;-77
2023/12/23 11:44:07;;;;;;;13.60;7.00;;;11.40;99.90;;;;;;5046786;28;20068;-81
2023/12/23 11:46:34;;;;;;;7.35;5.90;;;8.90;99.90;;;;;;5018968;28;20037;-75
2023/12/23 11:49:00;;;;;;;6.38;4.60;;;8.00;99.90;;;;;;5035130;28;20098;-82
2023/12/23 11:51:26;;;;;;;6.13;4.30;;;8.70;99.90;;;;;;5034670;28;20389;-80
2023/12/23 11:53:53;;;;;;;7.70;5.85;;;11.20;99.90;;;;;;5002139;28;20052;-80
2023/12/23 11:56:19;;;;;;;8.57;6.05;;;11.80;99.90;;;;;;5018184;28;20123;-76
2023/12/23 11:58:45;;;;;;;7.13;5.13;;;9.00;99.90;;;;;;5042423;28;20159;-75
2023/12/23 12:01:11;;;;;;;6.53;5.05;;;10.50;99.90;;;;;;5038378;28;20114;-81
2023/12/23 12:03:36;;;;;;;5.78;4.35;;;8.90;99.90;;;;;;5039873;28;20408;-78
2023/12/23 12:06:02;;;;;;;6.07;4.75;;;11.40;99.90;;;;;;5055616;28;20147;-77
2023/12/23 12:08:28;;;;;;;3.85;3.25;;;11.30;99.90;;;;;;5054095;28;20059;-79
2023/12/23 12:10:57;;;;;;;4.20;3.25;;;9.50;99.90;;;;;;5054009;28;20056;-75
2023/12/23 12:13:36;;;;;;;3.55;3.10;;;9.20;99.90;;;;;;5051101;28;20044;-76
2023/12/23 12:16:02;;;;;;;4.20;3.80;;;10.80;99.90;;;;;;5019654;28;20056;-78
2023/12/23 12:18:28;;;;;;;5.38;3.47;;;11.40;99.90;;;;;;5017424;28;20037;-80
2023/12/23 12:20:54;;;;;;;5.18;4.43;;;9.60;99.90;;;;;;5034183;28;20413;-77
2023/12/23 12:23:20;;;;;;;6.07;4.35;;;8.90;99.90;;;;;;5028922;28;20046;-78
2023/12/23 12:25:49;;;;;;;6.40;5.07;;;8.90;99.90;;;;;;5037260;28;20048;-78
2023/12/23 12:28:15;;;;;;;6.10;4.78;;;11.60;99.90;;;;;;5037247;28;20103;-76
2023/12/23 12:30:43;;;;;;;5.13;4.30;;;9.60;99.90;;;;;;5035814;28;20123;-79
2023/12/23 12:33:09;;;;;;;4.35;3.72;;;12.00;99.90;;;;;;5040234;28;20035;-77
2023/12/23 12:35:35;;;;;;;5.00;4.20;;;8.20;99.90;;;;;;5036928;28;20044;-76
2023/12/23 12:38:01;;;;;;;5.30;4.30;;;11.70;99.90;;;;;;5054442;28;20427;-81
2023/12/23 12:40:27;;;;;;;4.40;3.95;;;11.10;99.90;;;;;;5020650;28;20044;-79
2023/12/23 12:42:54;;;;;;;5.78;3.70;;;12.20;99.90;;;;;;5036101;28;20080;-78
2023/12/23 12:45:23;;;;;;;4.25;3.15;;;9.50;99.90;;;;;;5000751;28;20041;-80